Time;durP1;ratioP1;P1;durP2;ratioP2;P2;SDS_P1;SDS_P2;PMS_P1;PMS_P2;Temp;Humidity;BMP_temperature;BMP_pressure;BME280_temperature;BME280_humidity;BME280_pressure;Samples;Min_cycle;Max_cycle;Signal;HPM_P1;HPM_P2
2023/07/08 00:00:43;;;;;;;;;;;;;;;15.29;70.22;98746.28;2609764;28;19975;-86
2023/07/08 00:02:19;;;;;;;;;;;;;;;15.40;69.00;98746.69;2609657;28;20360;-86
2023/07/08 00:03:34;;;;;;;;;;;;;;;15.45;69.21;98746.50;2609467;28;19953;-86
2023/07/08 00:04:49;;;;;;;;;;;;;;;15.49;69.02;98748.06;2609644;28;19947;-86
2023/07/08 00:06:07;;;;;;;;;;;;;;;15.47;69.86;98747.28;2609437;28;19937;-87
2023/07/08 00:07:23;;;;;;;;;;;;;;;15.49;68.87;98758.63;2609598;28;20031;-86
2023/07/08 00:08:39;;;;;;;;;;;;;;;15.48;69.87;98749.88;2609577;28;19963;-86
2023/07/08 00:09:54;;;;;;;;;;;;;;;15.36;70.27;98753.88;2609719;28;19924;-86
2023/07/08 00:11:11;;;;;;;;;;;;;;;15.33;70.51;98751.38;2609665;28;19935;-86
2023/07/08 00:12:26;;;;;;;;;;;;;;;15.23;70.33;98753.56;2609162;28;19925;-86
2023/07/08 00:13:42;;;;;;;;;;;;;;;15.25;70.21;98753.50;2609345;28;20399;-86
2023/07/08 00:14:57;;;;;;;;;;;;;;;15.20;71.14;98753.69;2609558;28;20402;-86
2023/07/08 00:16:14;;;;;;;;;;;;;;;15.24;71.59;98757.91;2609747;28;20337;-86
2023/07/08 00:17:29;;;;;;;;;;;;;;;15.33;70.56;98756.66;2609449;28;20599;-86
2023/07/08 00:18:45;;;;;;;;;;;;;;;15.31;70.44;98755.84;2609094;28;19924;-86
2023/07/08 00:20:00;;;;;;;;;;;;;;;15.23;70.82;98752.72;2609317;28;19924;-85
2023/07/08 00:21:17;;;;;;;;;;;;;;;14.96;71.64;98759.03;2609546;28;20054;-85
2023/07/08 00:22:34;;;;;;;;;;;;;;;14.78;73.24;98742.19;2609311;28;20299;-86
2023/07/08 00:23:50;;;;;;;;;;;;;;;14.85;72.75;98755.97;2609287;28;19924;-86
2023/07/08 00:25:06;;;;;;;;;;;;;;;15.20;69.07;98755.44;2609537;28;19928;-85
2023/07/08 00:26:23;;;;;;;;;;;;;;;15.34;67.56;98753.09;2609274;28;19924;-86
2023/07/08 00:27:39;;;;;;;;;;;;;;;15.37;67.04;98755.63;2609081;28;19928;-86
2023/07/08 00:28:55;;;;;;;;;;;;;;;15.50;66.71;98755.06;2609408;28;19925;-86
2023/07/08 00:30:26;;;;;;;;;;;;;;;15.50;66.78;98753.28;2609494;28;19924;-87
2023/07/08 00:31:42;;;;;;;;;;;;;;;15.38;67.65;98754.69;2609218;28;19928;-86
2023/07/08 00:32:58;;;;;;;;;;;;;;;15.36;67.89;98753.88;2609376;28;19920;-86
2023/07/08 00:34:15;;;;;;;;;;;;;;;15.41;66.46;98750.19;2609426;28;19946;-86
2023/07/08 00:35:37;;;;;;;;;;;;;;;15.47;65.54;98747.28;2609286;28;20009;-86
2023/07/08 00:36:52;;;;;;;;;;;;;;;15.51;66.29;98754.16;2609418;28;20378;-86
2023/07/08 00:38:15;;;;;;;;;;;;;;;15.51;65.34;98748.88;2609311;28;19925;-87
2023/07/08 00:39:31;;;;;;;;;;;;;;;15.39;66.44;98755.53;2609575;28;20447;-86
2023/07/08 00:40:51;;;;;;;;;;;;;;;15.24;68.01;98751.78;2609271;28;19924;-86
2023/07/08 00:42:17;;;;;;;;;;;;;;;15.20;68.07;98756.31;2609131;28;19975;-86
2023/07/08 00:43:36;;;;;;;;;;;;;;;15.20;68.97;98755.44;2609154;28;19963;-86
2023/07/08 00:44:52;;;;;;;;;;;;;;;15.16;69.46;98756.50;2609348;28;20792;-86
2023/07/08 00:46:26;;;;;;;;;;;;;;;15.13;70.16;98754.00;2608889;28;19960;-86
2023/07/08 00:47:42;;;;;;;;;;;;;;;14.91;71.21;98754.88;2609064;28;19929;-86
2023/07/08 00:48:58;;;;;;;;;;;;;;;14.76;72.50;98753.75;2609078;28;19925;-87
2023/07/08 00:50:13;;;;;;;;;;;;;;;14.80;73.18;98750.91;2609481;28;19924;-85
2023/07/08 00:51:29;;;;;;;;;;;;;;;14.66;74.75;98748.78;2609426;28;19936;-86
2023/07/08 00:52:45;;;;;;;;;;;;;;;14.57;76.54;98751.78;2609176;28;19924;-86
2023/07/08 00:54:00;;;;;;;;;;;;;;;14.57;76.73;98754.41;2609528;28;19971;-86
2023/07/08 00:55:16;;;;;;;;;;;;;;;14.57;77.59;98756.22;2609339;28;19975;-85
2023/07/08 00:56:35;;;;;;;;;;;;;;;14.47;78.75;98753.09;2609133;28;20009;-86
2023/07/08 00:57:50;;;;;;;;;;;;;;;14.39;78.99;98754.22;2609234;28;19921;-86
2023/07/08 00:59:08;;;;;;;;;;;;;;;14.32;79.89;98757.16;2609235;28;19927;-85
2023/07/08 01:00:23;;;;;;;;;;;;;;;14.41;79.42;98759.44;2609269;28;19935;-85
2023/07/08 01:01:40;;;;;;;;;;;;;;;14.48;78.93;98758.28;2608961;28;19921;-85
2023/07/08 01:02:56;;;;;;;;;;;;;;;14.42;78.85;98753.25;2609274;28;20149;-86
2023/07/08 01:04:18;;;;;;;;;;;;;;;14.38;79.62;98757.78;2608967;28;20408;-85
2023/07/08 01:05:34;;;;;;;;;;;;;;;14.33;78.75;98751.84;2608879;28;19939;-86
2023/07/08 01:06:56;;;;;;;;;;;;;;;14.37;78.78;98756.06;2608865;28;19932;-86
2023/07/08 01:08:12;;;;;;;;;;;;;;;14.41;77.38;98748.91;2609141;28;19927;-86
2023/07/08 01:09:30;;;;;;;;;;;;;;;14.45;76.93;98755.75;2609184;28;19928;-86
2023/07/08 01:10:52;;;;;;;;;;;;;;;14.39;77.18;98754.22;2608929;28;19966;-86
2023/07/08 01:12:10;;;;;;;;;;;;;;;14.41;76.69;98756.81;2608851;28;20020;-86
2023/07/08 01:13:26;;;;;;;;;;;;;;;14.26;77.98;98752.97;2609257;28;19924;-86
2023/07/08 01:14:42;;;;;;;;;;;;;;;14.16;78.83;98748.97;2605310;28;19921;-86
2023/07/08 01:15:58;;;;;;;;;;;;;;;14.09;78.66;98753.59;2606510;28;19924;-86
2023/07/08 01:17:13;;;;;;;;;;;;;;;14.03;79.49;98748.59;2609229;28;19925;-86
2023/07/08 01:18:29;;;;;;;;;;;;;;;13.95;79.53;98751.50;2609502;28;19970;-86
2023/07/08 01:19:45;;;;;;;;;;;;;;;14.05;79.20;98744.13;2609058;28;19924;-86
2023/07/08 01:21:06;;;;;;;;;;;;;;;14.16;77.86;98747.22;2608866;28;19960;-86
2023/07/08 01:22:21;;;;;;;;;;;;;;;14.13;78.49;98742.06;2609095;28;19924;-85
2023/07/08 01:23:36;;;;;;;;;;;;;;;14.18;77.36;98736.59;2609118;28;19955;-85
2023/07/08 01:24:52;;;;;;;;;;;;;;;14.29;76.77;98744.94;2610990;28;19979;-86
2023/07/08 01:26:07;;;;;;;;;;;;;;;14.24;77.28;98746.91;2611260;28;19925;-85
2023/07/08 01:27:23;;;;;;;;;;;;;;;14.23;77.04;98742.56;2611572;28;20011;-86
2023/07/08 01:28:38;;;;;;;;;;;;;;;14.23;77.86;98742.56;2611614;28;19925;-86
2023/07/08 01:29:54;;;;;;;;;;;;;;;14.24;78.51;98741.66;2611305;28;19925;-85
2023/07/08 01:31:09;;;;;;;;;;;;;;;14.17;78.24;98741.03;2611137;28;19971;-86
2023/07/08 01:32:25;;;;;;;;;;;;;;;14.15;78.77;98732.34;2611261;28;19929;-86
2023/07/08 01:33:40;;;;;;;;;;;;;;;14.13;79.76;98736.81;2611472;28;20015;-86
2023/07/08 01:35:00;;;;;;;;;;;;;;;14.13;79.98;98742.06;2610999;28;19921;-85
2023/07/08 01:36:16;;;;;;;;;;;;;;;14.13;79.74;98742.91;2610821;28;19924;-86
2023/07/08 01:37:31;;;;;;;;;;;;;;;14.14;79.56;98738.50;2611121;28;19938;-86
2023/07/08 01:38:47;;;;;;;;;;;;;;;14.00;80.63;98735.53;2610969;28;19924;-86
2023/07/08 01:40:20;;;;;;;;;;;;;;;13.93;82.19;98735.75;2610942;28;19935;-86
2023/07/08 01:41:36;;;;;;;;;;;;;;;13.76;88.09;98738.16;2610733;28;19940;-86
2023/07/08 01:42:52;;;;;;;;;;;;;;;13.56;89.22;98734.47;2611169;28;19931;-85
2023/07/08 01:44:19;;;;;;;;;;;;;;;13.64;88.35;98736.84;2610814;28;19947;-86
2023/07/08 01:45:36;;;;;;;;;;;;;;;13.70;88.18;98731.34;2610719;28;19964;-87
2023/07/08 01:46:54;;;;;;;;;;;;;;;13.67;87.48;98734.94;2610973;28;19925;-86
2023/07/08 01:48:14;;;;;;;;;;;;;;;13.65;87.26;98734.13;2611242;28;20024;-86
2023/07/08 01:49:31;;;;;;;;;;;;;;;13.73;88.48;98733.00;2610883;28;19928;-85
2023/07/08 01:51:00;;;;;;;;;;;;;;;13.69;87.63;98732.25;2610863;28;19928;-85
2023/07/08 01:52:16;;;;;;;;;;;;;;;13.81;86.03;98734.44;2610865;28;19925;-85
2023/07/08 01:53:33;;;;;;;;;;;;;;;13.67;88.62;98742.81;2610907;28;20375;-86
2023/07/08 01:54:54;;;;;;;;;;;;;;;13.69;86.75;98738.38;2610868;28;20387;-86
2023/07/08 01:56:11;;;;;;;;;;;;;;;13.58;89.78;98743.16;2610877;28;20104;-85
2023/07/08 01:57:26;;;;;;;;;;;;;;;13.60;89.46;98737.84;2610746;28;20051;-85
2023/07/08 01:58:41;;;;;;;;;;;;;;;13.65;89.56;98734.13;2611077;28;20376;-86
2023/07/08 01:59:57;;;;;;;;;;;;;;;13.69;88.72;98733.13;2605580;28;19928;-85
2023/07/08 02:01:12;;;;;;;;;;;;;;;13.60;90.55;98738.72;2606964;28;19929;-86
2023/07/08 02:02:28;;;;;;;;;;;;;;;13.50;90.39;98737.31;2611158;28;19924;-86
2023/07/08 02:03:46;;;;;;;;;;;;;;;13.61;89.15;98736.91;2610607;28;19920;-86
2023/07/08 02:05:01;;;;;;;;;;;;;;;13.58;88.34;98732.66;2610703;28;19932;-86
2023/07/08 02:06:17;;;;;;;;;;;;;;;13.49;89.16;98730.34;2610458;28;19925;-86
2023/07/08 02:07:32;;;;;;;;;;;;;;;13.33;88.52;98735.22;2611006;28;20380;-86
2023/07/08 02:08:48;;;;;;;;;;;;;;;13.23;90.97;98734.69;2610614;28;19920;-85
2023/07/08 02:10:03;;;;;;;;;;;;;;;13.33;90.04;98733.47;2610710;28;19931;-85
2023/07/08 02:11:18;;;;;;;;;;;;;;;13.28;92.45;98727.53;2610904;28;19986;-87
2023/07/08 02:12:34;;;;;;;;;;;;;;;13.26;92.63;98726.69;2610913;28;19920;-86
2023/07/08 02:13:49;;;;;;;;;;;;;;;13.26;92.98;98722.31;2610625;28;19920;-85
2023/07/08 02:15:05;;;;;;;;;;;;;;;13.17;92.84;98725.25;2610705;28;20500;-86
2023/07/08 02:16:21;;;;;;;;;;;;;;;13.24;92.99;98726.75;2610676;28;19924;-86
2023/07/08 02:17:36;;;;;;;;;;;;;;;13.31;91.50;98724.78;2610644;28;19932;-86
2023/07/08 02:18:51;;;;;;;;;;;;;;;13.34;91.11;98723.78;2610738;28;19931;-86
2023/07/08 02:20:08;;;;;;;;;;;;;;;13.26;90.64;98722.31;2610367;28;19959;-86
2023/07/08 02:21:23;;;;;;;;;;;;;;;13.34;90.71;98722.03;2610533;28;19959;-86
2023/07/08 02:22:39;;;;;;;;;;;;;;;13.26;91.84;98721.44;2610554;28;19927;-86
2023/07/08 02:23:54;;;;;;;;;;;;;;;13.22;91.76;98723.34;2610601;28;19921;-86
2023/07/08 02:25:10;;;;;;;;;;;;;;;13.27;91.94;98720.56;2610616;28;19921;-86
2023/07/08 02:26:26;;;;;;;;;;;;;;;13.28;90.55;98725.75;2610727;28;19921;-86
2023/07/08 02:27:42;;;;;;;;;;;;;;;13.13;90.75;98714.00;2610500;28;20459;-85
2023/07/08 02:28:58;;;;;;;;;;;;;;;13.20;89.33;98716.41;2610356;28;19925;-86
2023/07/08 02:30:13;;;;;;;;;;;;;;;13.06;91.14;98712.47;2610443;28;19924;-85
2023/07/08 02:31:28;;;;;;;;;;;;;;;13.17;90.12;98709.47;2610684;28;19925;-86
2023/07/08 02:32:48;;;;;;;;;;;;;;;13.21;89.96;98715.50;2610458;28;20307;-86
2023/07/08 02:34:04;;;;;;;;;;;;;;;13.18;90.84;98710.34;2610385;28;20288;-86
2023/07/08 02:35:19;;;;;;;;;;;;;;;13.10;90.35;98716.72;2609956;28;19927;-85
2023/07/08 02:36:34;;;;;;;;;;;;;;;13.14;89.59;98717.47;2610031;28;19921;-85
2023/07/08 02:37:50;;;;;;;;;;;;;;;13.22;89.87;98714.56;2610504;28;19925;-86
2023/07/08 02:39:05;;;;;;;;;;;;;;;13.23;91.55;98717.16;2610587;28;19964;-85
2023/07/08 02:40:21;;;;;;;;;;;;;;;13.18;92.46;98719.06;2610620;28;20023;-86
2023/07/08 02:41:37;;;;;;;;;;;;;;;13.18;91.00;98718.22;2610376;28;19924;-86
2023/07/08 02:42:52;;;;;;;;;;;;;;;13.17;90.72;98719.97;2610185;28;20102;-86
2023/07/08 02:44:08;;;;;;;;;;;;;;;13.11;91.13;98725.47;2610418;28;19967;-86
2023/07/08 02:45:23;;;;;;;;;;;;;;;13.02;91.62;98726.63;2610294;28;19925;-85
2023/07/08 02:46:38;;;;;;;;;;;;;;;12.91;91.79;98726.13;2610444;28;19925;-86
2023/07/08 02:47:54;;;;;;;;;;;;;;;12.91;93.77;98721.72;2610166;28;19925;-86
2023/07/08 02:49:09;;;;;;;;;;;;;;;12.95;92.74;98722.47;2610264;28;19925;-86
2023/07/08 02:50:25;;;;;;;;;;;;;;;12.82;94.11;98724.66;2610569;28;20294;-85
2023/07/08 02:51:40;;;;;;;;;;;;;;;12.88;92.51;98734.13;2610673;28;20368;-85
2023/07/08 02:52:55;;;;;;;;;;;;;;;12.81;93.68;98723.78;2610268;28;19921;-86
2023/07/08 02:54:11;;;;;;;;;;;;;;;12.75;95.43;98725.75;2610388;28;19924;-86
2023/07/08 02:55:26;;;;;;;;;;;;;;;12.67;96.46;98726.88;2610247;28;19920;-86
2023/07/08 02:56:42;;;;;;;;;;;;;;;12.52;97.30;98730.84;2610270;28;19951;-86
2023/07/08 02:57:57;;;;;;;;;;;;;;;12.71;94.54;98730.25;2610307;28;19928;-85
2023/07/08 02:59:12;;;;;;;;;;;;;;;12.57;97.83;98733.31;2610519;28;20030;-85
2023/07/08 03:00:28;;;;;;;;;;;;;;;12.64;95.97;98734.88;2610664;28;19975;-86
2023/07/08 03:01:46;;;;;;;;;;;;;;;12.76;94.84;98730.09;2610426;28;19951;-85
2023/07/08 03:03:02;;;;;;;;;;;;;;;12.74;94.58;98727.53;2610072;28;19921;-86
2023/07/08 03:04:18;;;;;;;;;;;;;;;12.69;96.20;98734.69;2610343;28;19924;-86
2023/07/08 03:05:33;;;;;;;;;;;;;;;12.68;95.54;98733.84;2610196;28;19924;-86
2023/07/08 03:06:50;;;;;;;;;;;;;;;12.73;97.09;98735.47;2609788;28;19974;-85
2023/07/08 03:08:06;;;;;;;;;;;;;;;12.64;98.53;98734.00;2609799;28;19959;-85
2023/07/08 03:09:21;;;;;;;;;;;;;;;12.56;100.00;98737.72;2610203;28;20019;-85
2023/07/08 03:10:37;;;;;;;;;;;;;;;12.44;100.00;98738.13;2610324;28;20229;-86
2023/07/08 03:11:52;;;;;;;;;;;;;;;12.58;99.22;98748.19;2609954;28;20105;-85
2023/07/08 03:13:07;;;;;;;;;;;;;;;12.56;97.28;98747.38;2609902;28;20062;-85
2023/07/08 03:14:23;;;;;;;;;;;;;;;12.56;96.54;98742.97;2610069;28;19928;-85
2023/07/08 03:15:38;;;;;;;;;;;;;;;12.50;97.92;98750.16;2610367;28;19924;-85
2023/07/08 03:16:53;;;;;;;;;;;;;;;12.52;100.00;98743.97;2609845;28;19924;-86
2023/07/08 03:18:09;;;;;;;;;;;;;;;12.41;100.00;98741.69;2609952;28;19924;-85
2023/07/08 03:19:25;;;;;;;;;;;;;;;12.50;100.00;98751.03;2610264;28;19924;-86
2023/07/08 03:20:40;;;;;;;;;;;;;;;12.52;98.85;98751.00;2609806;28;19925;-85
2023/07/08 03:21:56;;;;;;;;;;;;;;;12.64;98.38;98752.38;2609716;28;20544;-86
2023/07/08 03:23:11;;;;;;;;;;;;;;;12.64;99.55;98752.38;2610116;28;19924;-85
2023/07/08 03:24:29;;;;;;;;;;;;;;;12.62;100.00;98748.94;2610202;28;19931;-85
2023/07/08 03:25:45;;;;;;;;;;;;;;;12.67;100.00;98753.16;2609936;28;20362;-86
2023/07/08 03:27:04;;;;;;;;;;;;;;;12.57;100.00;98751.72;2609764;28;19925;-86
2023/07/08 03:28:20;;;;;;;;;;;;;;;12.44;100.00;98751.25;2604256;28;20510;-85
2023/07/08 03:29:36;;;;;;;;;;;;;;;12.49;100.00;98744.06;2606827;28;19967;-85
2023/07/08 03:30:52;;;;;;;;;;;;;;;12.67;100.00;98747.91;2609893;28;19932;-85
2023/07/08 03:32:09;;;;;;;;;;;;;;;12.61;100.00;98755.94;2609968;28;19931;-85
2023/07/08 03:33:25;;;;;;;;;;;;;;;12.75;100.00;98750.28;2609958;28;20379;-86
2023/07/08 03:34:40;;;;;;;;;;;;;;;12.79;100.00;98751.03;2610179;28;19971;-85
2023/07/08 03:35:55;;;;;;;;;;;;;;;12.89;99.91;98759.47;2609718;28;19975;-86
2023/07/08 03:37:11;;;;;;;;;;;;;;;12.85;100.00;98756.97;2609701;28;19936;-85
2023/07/08 03:38:26;;;;;;;;;;;;;;;12.86;100.00;98763.06;2610118;28;19970;-85
2023/07/08 03:39:42;;;;;;;;;;;;;;;12.85;100.00;98762.22;2610090;28;19928;-85
2023/07/08 03:40:57;;;;;;;;;;;;;;;12.79;100.00;98772.91;2609772;28;19971;-85
2023/07/08 03:42:13;;;;;;;;;;;;;;;12.83;100.00;98763.16;2609744;28;19928;-86
2023/07/08 03:43:28;;;;;;;;;;;;;;;12.78;100.00;98773.81;2609962;28;19925;-86
2023/07/08 03:44:43;;;;;;;;;;;;;;;12.64;100.00;98773.41;2609746;28;19927;-85
2023/07/08 03:45:59;;;;;;;;;;;;;;;12.66;100.00;98777.69;2609668;28;19927;-85
2023/07/08 03:47:14;;;;;;;;;;;;;;;12.61;100.00;98774.34;2608927;28;20418;-85
2023/07/08 03:48:30;;;;;;;;;;;;;;;12.71;100.00;98774.91;2609753;28;19972;-85
2023/07/08 03:49:45;;;;;;;;;;;;;;;12.59;100.00;98776.16;2609510;28;19924;-85
2023/07/08 03:51:01;;;;;;;;;;;;;;;12.51;100.00;98779.03;2609641;28;20415;-85
2023/07/08 03:52:17;;;;;;;;;;;;;;;12.53;100.00;98782.47;2609757;28;19955;-85
2023/07/08 03:53:32;;;;;;;;;;;;;;;12.64;100.00;98783.91;2610047;28;19998;-85
2023/07/08 03:54:47;;;;;;;;;;;;;;;12.75;100.00;98783.56;2609782;28;19994;-86
2023/07/08 03:56:03;;;;;;;;;;;;;;;12.73;100.00;98788.88;2609465;28;20052;-85
2023/07/08 03:57:18;;;;;;;;;;;;;;;12.71;100.00;98794.16;2609749;28;19936;-86
2023/07/08 03:58:34;;;;;;;;;;;;;;;12.64;100.00;98792.66;2609750;28;19959;-86
2023/07/08 03:59:49;;;;;;;;;;;;;;;12.60;100.00;98792.78;2609809;28;19924;-85
2023/07/08 04:01:05;;;;;;;;;;;;;;;12.67;100.00;98794.31;2609344;28;19931;-85
2023/07/08 04:02:20;;;;;;;;;;;;;;;12.69;100.00;98792.50;2609772;28;19925;-85
2023/07/08 04:03:35;;;;;;;;;;;;;;;12.77;100.00;98792.25;2609797;28;19925;-85
2023/07/08 04:04:51;;;;;;;;;;;;;;;12.81;100.00;98793.88;2609682;28;19951;-85
2023/07/08 04:06:06;;;;;;;;;;;;;;;12.79;100.00;98793.94;2609045;28;19932;-85
2023/07/08 04:07:22;;;;;;;;;;;;;;;12.92;100.00;98791.78;2609625;28;20348;-85
2023/07/08 04:08:37;;;;;;;;;;;;;;;12.97;100.00;98789.00;2609389;28;19924;-85
2023/07/08 04:09:52;;;;;;;;;;;;;;;13.08;100.00;98793.91;2609379;28;20366;-85
2023/07/08 04:11:11;;;;;;;;;;;;;;;13.05;100.00;98794.00;2609527;28;19924;-85
2023/07/08 04:12:27;;;;;;;;;;;;;;;13.12;100.00;98795.53;2609581;28;20023;-85
2023/07/08 04:13:42;;;;;;;;;;;;;;;13.14;100.00;98802.47;2609653;28;19931;-85
2023/07/08 04:14:57;;;;;;;;;;;;;;;13.19;100.00;98798.81;2609445;28;19931;-85
2023/07/08 04:16:24;;;;;;;;;;;;;;;13.20;100.00;98804.03;2609442;28;20406;-85
2023/07/08 04:17:45;;;;;;;;;;;;;;;13.07;100.00;98795.66;2609482;28;20387;-84
2023/07/08 04:19:01;;;;;;;;;;;;;;;13.06;100.00;98796.59;2609168;28;19952;-84
2023/07/08 04:20:18;;;;;;;;;;;;;;;13.04;100.00;98794.91;2609204;28;20399;-85
2023/07/08 04:21:33;;;;;;;;;;;;;;;13.14;100.00;98794.56;2609361;28;19928;-85
2023/07/08 04:22:49;;;;;;;;;;;;;;;13.24;100.00;98796.88;2609518;28;19932;-84
2023/07/08 04:24:05;;;;;;;;;;;;;;;13.34;100.00;98797.44;2609263;28;19920;-84
2023/07/08 04:25:21;;;;;;;;;;;;;;;13.37;100.00;98794.72;2609352;28;19970;-84
2023/07/08 04:26:36;;;;;;;;;;;;;;;13.41;100.00;98793.69;2609282;28;20018;-84
2023/07/08 04:27:52;;;;;;;;;;;;;;;13.49;100.00;98796.09;2609622;28;20013;-85
2023/07/08 04:29:11;;;;;;;;;;;;;;;13.35;100.00;98804.44;2609316;28;19924;-85
2023/07/08 04:30:26;;;;;;;;;;;;;;;13.36;100.00;98800.91;2609193;28;20581;-84
2023/07/08 04:31:42;;;;;;;;;;;;;;;13.40;100.00;98799.88;2609334;28;19924;-84
2023/07/08 04:32:57;;;;;;;;;;;;;;;13.60;100.00;98798.34;2609421;28;19968;-84
2023/07/08 04:34:13;;;;;;;;;;;;;;;13.56;100.00;98797.63;2609299;28;20290;-84
2023/07/08 04:35:29;;;;;;;;;;;;;;;13.60;100.00;98807.13;2609417;28;19970;-84
2023/07/08 04:36:44;;;;;;;;;;;;;;;13.82;99.65;98801.06;2609380;28;19927;-84
2023/07/08 04:38:00;;;;;;;;;;;;;;;13.73;100.00;98799.63;2609459;28;20404;-84
2023/07/08 04:39:16;;;;;;;;;;;;;;;13.84;98.58;98804.53;2609156;28;20015;-84
2023/07/08 04:40:31;;;;;;;;;;;;;;;13.75;100.00;98808.34;2609357;28;20269;-85
2023/07/08 04:41:47;;;;;;;;;;;;;;;13.82;100.00;98803.72;2609509;28;19924;-85
2023/07/08 04:43:02;;;;;;;;;;;;;;;13.97;100.00;98805.81;2609238;28;19924;-84
2023/07/08 04:44:19;;;;;;;;;;;;;;;13.84;100.00;98805.38;2608893;28;20363;-84
2023/07/08 04:45:34;;;;;;;;;;;;;;;13.92;99.69;98810.38;2609349;28;19924;-84
2023/07/08 04:46:53;;;;;;;;;;;;;;;13.95;100.00;98810.25;2609360;28;20364;-84
2023/07/08 04:48:12;;;;;;;;;;;;;;;14.00;98.21;98809.25;2609244;28;19967;-84
2023/07/08 04:49:31;;;;;;;;;;;;;;;14.20;96.01;98806.72;2609229;28;20223;-83
2023/07/08 04:50:48;;;;;;;;;;;;;;;14.19;97.13;98809.44;2609324;28;20852;-83
2023/07/08 04:52:03;;;;;;;;;;;;;;;14.32;91.91;98815.09;2608858;28;19929;-83
2023/07/08 04:53:19;;;;;;;;;;;;;;;14.39;92.89;98808.69;2609220;28;20339;-83
2023/07/08 04:54:34;;;;;;;;;;;;;;;14.27;94.35;98808.25;2609070;28;19920;-84
2023/07/08 04:55:54;;;;;;;;;;;;;;;14.43;92.41;98812.06;2609540;28;19942;-84
2023/07/08 04:57:09;;;;;;;;;;;;;;;14.57;93.77;98807.13;2609321;28;19992;-84
2023/07/08 04:58:25;;;;;;;;;;;;;;;14.61;92.19;98814.00;2608619;28;20007;-85
2023/07/08 04:59:40;;;;;;;;;;;;;;;14.54;93.18;98813.38;2609057;28;20296;-84
2023/07/08 05:00:55;;;;;;;;;;;;;;;14.58;92.56;98811.47;2609184;28;19939;-84
2023/07/08 05:02:11;;;;;;;;;;;;;;;14.71;91.76;98811.88;2609358;28;19935;-84
2023/07/08 05:03:26;;;;;;;;;;;;;;;14.85;91.20;98810.50;2609000;28;20008;-84
2023/07/08 05:04:42;;;;;;;;;;;;;;;14.95;89.00;98815.34;2609150;28;19931;-84
2023/07/08 05:05:57;;;;;;;;;;;;;;;14.96;86.97;98816.22;2609424;28;20844;-84
2023/07/08 05:07:12;;;;;;;;;;;;;;;15.00;88.16;98814.28;2608997;28;19947;-84
2023/07/08 05:08:28;;;;;;;;;;;;;;;14.98;88.63;98819.63;2608662;28;19931;-83
2023/07/08 05:09:43;;;;;;;;;;;;;;;15.21;87.47;98809.91;2609213;28;19981;-84
2023/07/08 05:10:59;;;;;;;;;;;;;;;15.23;87.28;98816.00;2609473;28;19925;-84
2023/07/08 05:12:14;;;;;;;;;;;;;;;15.27;85.35;98814.09;2609073;28;20494;-84
2023/07/08 05:13:30;;;;;;;;;;;;;;;15.38;83.94;98818.00;2609023;28;20307;-84
2023/07/08 05:14:45;;;;;;;;;;;;;;;15.42;84.29;98817.88;2609067;28;20295;-85
2023/07/08 05:16:01;;;;;;;;;;;;;;;15.51;83.02;98814.84;2609329;28;20360;-84
2023/07/08 05:17:16;;;;;;;;;;;;;;;15.55;83.18;98813.78;2609244;28;19979;-84
2023/07/08 05:18:31;;;;;;;;;;;;;;;15.59;83.45;98814.53;2609088;28;19921;-84
2023/07/08 05:19:50;;;;;;;;;;;;;;;15.80;79.95;98828.59;2609323;28;19921;-84
2023/07/08 05:21:06;;;;;;;;;;;;;;;15.92;78.14;98828.09;2608836;28;19920;-84
2023/07/08 05:22:25;;;;;;;;;;;;;;;15.98;77.90;98826.09;2608995;28;19930;-84
2023/07/08 05:23:40;;;;;;;;;;;;;;;16.04;75.95;98831.09;2609014;28;19924;-85
2023/07/08 05:24:56;;;;;;;;;;;;;;;16.21;75.93;98833.00;2603308;28;19925;-84
2023/07/08 05:26:11;;;;;;;;;;;;;;;16.16;76.68;98830.56;2604702;28;19931;-85
2023/07/08 05:27:27;;;;;;;;;;;;;;;16.35;74.48;98827.94;2608914;28;19931;-84
2023/07/08 05:28:42;;;;;;;;;;;;;;;16.41;74.81;98834.72;2608743;28;19924;-84
2023/07/08 05:29:58;;;;;;;;;;;;;;;16.41;75.09;98834.72;2609210;28;20382;-85
2023/07/08 05:31:13;;;;;;;;;;;;;;;16.59;74.47;98833.03;2609177;28;19971;-85
2023/07/08 05:32:29;;;;;;;;;;;;;;;16.63;74.73;98820.53;2608799;28;19932;-87
2023/07/08 05:33:44;;;;;;;;;;;;;;;16.83;75.53;98824.84;2609106;28;20284;-84
2023/07/08 05:34:59;;;;;;;;;;;;;;;16.87;71.54;98825.56;2609146;28;20380;-85
2023/07/08 05:36:15;;;;;;;;;;;;;;;17.02;71.34;98824.84;2609075;28;19932;-85
2023/07/08 05:37:30;;;;;;;;;;;;;;;17.19;69.82;98823.19;2608950;28;19920;-84
2023/07/08 05:38:46;;;;;;;;;;;;;;;17.32;68.09;98821.66;2609098;28;19960;-85
2023/07/08 05:40:02;;;;;;;;;;;;;;;17.37;69.20;98816.13;2609242;28;20724;-85
2023/07/08 05:41:18;;;;;;;;;;;;;;;17.46;67.61;98817.44;2608953;28;19924;-85
2023/07/08 05:42:33;;;;;;;;;;;;;;;17.54;66.81;98819.72;2608917;28;19928;-85
2023/07/08 05:43:48;;;;;;;;;;;;;;;17.53;66.01;98824.16;2609328;28;20334;-85
2023/07/08 05:45:06;;;;;;;;;;;;;;;17.57;66.71;98825.69;2609090;28;19928;-85
2023/07/08 05:46:22;;;;;;;;;;;;;;;17.63;65.51;98825.41;2608053;28;19979;-85
2023/07/08 05:47:37;;;;;;;;;;;;;;;17.81;64.28;98833.34;2608250;28;19943;-85
2023/07/08 05:48:53;;;;;;;;;;;;;;;17.93;64.48;98829.19;2609197;28;19947;-85
2023/07/08 05:50:09;;;;;;;;;;;;;;;17.92;64.64;98832.78;2609026;28;20438;-85
2023/07/08 05:51:24;;;;;;;;;;;;;;;17.82;64.75;98828.91;2608813;28;19924;-85
2023/07/08 05:52:40;;;;;;;;;;;;;;;17.98;63.66;98826.31;2608968;28;19924;-85
2023/07/08 05:53:55;;;;;;;;;;;;;;;18.11;62.70;98827.41;2609084;28;20549;-85
2023/07/08 05:55:11;;;;;;;;;;;;;;;18.23;61.29;98825.03;2609072;28;20357;-85
2023/07/08 05:56:26;;;;;;;;;;;;;;;18.09;63.37;98829.28;2608823;28;19983;-85
2023/07/08 05:57:41;;;;;;;;;;;;;;;18.30;61.93;98815.81;2608873;28;19928;-85
2023/07/08 05:58:57;;;;;;;;;;;;;;;18.37;61.04;98818.97;2609169;28;19932;-84
2023/07/08 06:00:13;;;;;;;;;;;;;;;18.58;59.81;98828.44;2608881;28;19920;-87
2023/07/08 06:01:28;;;;;;;;;;;;;;;18.60;60.12;98828.34;2608668;28;19921;-85
2023/07/08 06:02:43;;;;;;;;;;;;;;;18.64;59.23;98819.28;2608852;28;19976;-85
2023/07/08 06:03:59;;;;;;;;;;;;;;;18.77;59.16;98816.78;2608154;28;19981;-85
2023/07/08 06:05:15;;;;;;;;;;;;;;;18.80;58.99;98821.94;2608367;28;20011;-85
2023/07/08 06:06:30;;;;;;;;;;;;;;;18.90;59.17;98819.63;2608599;28;19925;-85
2023/07/08 06:07:45;;;;;;;;;;;;;;;19.02;58.32;98815.44;2608872;28;19924;-86
2023/07/08 06:09:01;;;;;;;;;;;;;;;19.15;58.71;98824.41;2608942;28;19996;-85
2023/07/08 06:10:16;;;;;;;;;;;;;;;19.22;57.68;98816.13;2609667;28;20287;-85
2023/07/08 06:11:32;;;;;;;;;;;;;;;19.15;57.23;98821.75;2610772;28;20023;-85
2023/07/08 06:12:47;;;;;;;;;;;;;;;19.43;56.10;98821.97;2610656;28;19924;-85
2023/07/08 06:14:03;;;;;;;;;;;;;;;19.46;56.04;98816.47;2610885;28;20379;-85
2023/07/08 06:15:19;;;;;;;;;;;;;;;19.59;55.65;98820.13;2610885;28;19975;-85
2023/07/08 06:16:34;;;;;;;;;;;;;;;19.57;56.48;98814.06;2610648;28;20533;-85
2023/07/08 06:17:50;;;;;;;;;;;;;;;19.79;55.42;98818.06;2610698;28;19920;-85
2023/07/08 06:19:05;;;;;;;;;;;;;;;19.95;53.60;98818.03;2610738;28;19942;-85
2023/07/08 06:20:21;;;;;;;;;;;;;;;19.98;52.36;98815.19;2610355;28;19948;-85
2023/07/08 06:21:36;;;;;;;;;;;;;;;19.81;53.77;98816.16;2610538;28;19924;-85
2023/07/08 06:22:52;;;;;;;;;;;;;;;19.92;52.68;98812.91;2610973;28;20380;-85
2023/07/08 06:24:07;;;;;;;;;;;;;;;19.98;53.10;98819.66;2610649;28;19924;-85
2023/07/08 06:25:23;;;;;;;;;;;;;;;19.99;53.45;98814.22;2610423;28;19956;-84
2023/07/08 06:26:38;;;;;;;;;;;;;;;20.13;52.68;98807.22;2610520;28;19925;-84
2023/07/08 06:27:54;;;;;;;;;;;;;;;20.12;51.54;98811.69;2610714;28;20280;-84
2023/07/08 06:29:09;;;;;;;;;;;;;;;20.14;52.33;98811.59;2610729;28;19929;-85
2023/07/08 06:30:24;;;;;;;;;;;;;;;20.23;51.92;98812.81;2610351;28;19929;-84
2023/07/08 06:31:40;;;;;;;;;;;;;;;20.32;51.80;98807.81;2610682;28;20375;-85
2023/07/08 06:32:55;;;;;;;;;;;;;;;20.46;51.63;98809.56;2610687;28;19920;-85
2023/07/08 06:34:11;;;;;;;;;;;;;;;20.43;51.24;98804.47;2610376;28;20268;-85
2023/07/08 06:35:26;;;;;;;;;;;;;;;20.45;51.90;98805.22;2610356;28;20378;-86
2023/07/08 06:36:42;;;;;;;;;;;;;;;20.58;52.56;98804.44;2610592;28;19932;-85